createdAt,value
2023-03-13T00:00:32.984Z,93.18
2023-03-13T00:01:32.993Z,93.18
2023-03-13T00:02:33.020Z,93.18
2023-03-13T00:03:32.977Z,93.18
2023-03-13T00:04:33.057Z,93.18
2023-03-13T00:05:32.987Z,93.18
2023-03-13T00:06:32.973Z,93.18
2023-03-13T00:07:32.968Z,93.18
2023-03-13T00:08:32.963Z,93.18
2023-03-13T00:09:33.061Z,93.18
2023-03-13T00:10:32.987Z,93.18
2023-03-13T00:11:32.999Z,93.18
2023-03-13T00:12:32.979Z,93.18
2023-03-13T00:13:32.990Z,93.18
2023-03-13T00:14:32.970Z,93.18
2023-03-13T00:15:32.968Z,93.18
2023-03-13T00:16:33.029Z,93.18
2023-03-13T00:17:33.067Z,93.18
2023-03-13T00:18:32.976Z,93.18
2023-03-13T00:19:32.979Z,93.18
2023-03-13T00:20:33.022Z,93.18
2023-03-13T00:21:33.002Z,93.18
2023-03-13T00:22:32.992Z,93.18
2023-03-13T00:23:32.991Z,93.18
2023-03-13T00:24:32.988Z,93.18
2023-03-13T00:25:33.049Z,93.18
2023-03-13T00:26:32.993Z,93.18
2023-03-13T00:27:33.028Z,93.18
2023-03-13T00:28:33.000Z,93.18
2023-03-13T00:29:33.002Z,93.18
2023-03-13T00:30:33.056Z,93.18
2023-03-13T00:31:33.096Z,93.18
2023-03-13T00:32:33.097Z,93.18
2023-03-13T00:33:32.992Z,93.18
2023-03-13T00:34:33.019Z,93.18
2023-03-13T00:35:33.049Z,93.18
2023-03-13T00:36:33.104Z,93.18
2023-03-13T00:37:33.014Z,93.18
2023-03-13T00:38:33.015Z,93.18
2023-03-13T00:39:33.020Z,93.18
2023-03-13T00:40:33.030Z,93.18
2023-03-13T00:41:33.006Z,93.18
2023-03-13T00:42:33.018Z,93.18
2023-03-13T00:43:33.038Z,93.18
2023-03-13T00:44:33.024Z,93.18
2023-03-13T00:45:33.021Z,93.18
2023-03-13T00:46:33.070Z,93.18
2023-03-13T00:47:33.021Z,93.18
2023-03-13T00:48:33.015Z,93.18
2023-03-13T00:49:33.038Z,93.18
2023-03-13T00:50:33.028Z,93.18
2023-03-13T00:51:33.024Z,93.18
2023-03-13T00:52:33.015Z,93.18
2023-03-13T00:53:33.044Z,93.18
2023-03-13T00:54:33.030Z,93.18
2023-03-13T00:55:33.024Z,93.18
2023-03-13T00:56:33.033Z,134.12
2023-03-13T00:57:33.034Z,121.41
2023-03-13T00:58:33.041Z,159.53
2023-03-13T00:59:33.062Z,165.18
2023-03-13T01:00:33.043Z,165.18
2023-03-13T01:01:33.039Z,168
2023-03-13T01:02:33.166Z,96
2023-03-13T01:03:33.044Z,96
2023-03-13T01:04:33.043Z,146.82
2023-03-13T01:05:33.051Z,129.88
2023-03-13T01:06:33.062Z,129.88
2023-03-13T01:07:33.067Z,129.88
2023-03-13T01:08:33.062Z,129.88
2023-03-13T01:09:33.087Z,129.88
2023-03-13T01:10:33.053Z,129.88
2023-03-13T01:11:33.114Z,129.88
2023-03-13T01:12:33.068Z,129.88
2023-03-13T01:13:33.076Z,166.59
2023-03-13T01:14:33.092Z,155.29
2023-03-13T01:15:33.176Z,155.29
2023-03-13T01:16:33.098Z,155.29
2023-03-13T01:17:33.066Z,155.29
2023-03-13T01:18:33.071Z,155.29
2023-03-13T01:19:33.088Z,155.29
2023-03-13T01:20:33.096Z,155.29
2023-03-13T01:21:33.094Z,155.29
2023-03-13T01:22:33.079Z,155.29
2023-03-13T01:23:33.083Z,155.29
2023-03-13T01:24:33.089Z,155.29
2023-03-13T01:25:33.080Z,155.29
2023-03-13T01:26:33.097Z,155.29
2023-03-13T01:27:33.099Z,155.29
2023-03-13T01:28:33.073Z,155.29
2023-03-13T01:29:33.083Z,155.29
2023-03-13T01:30:33.089Z,155.29
2023-03-13T01:31:33.202Z,155.29
2023-03-13T01:32:33.132Z,155.29
2023-03-13T01:33:33.120Z,155.29
2023-03-13T01:34:33.088Z,155.29
2023-03-13T01:35:33.177Z,155.29
2023-03-13T01:36:33.112Z,155.29
2023-03-13T01:37:33.114Z,155.29
2023-03-13T01:38:33.117Z,155.29
2023-03-13T01:39:33.118Z,155.29
2023-03-13T01:40:33.108Z,155.29
2023-03-13T01:41:33.103Z,155.29
2023-03-13T01:42:33.110Z,155.29
2023-03-13T01:43:33.114Z,155.29
2023-03-13T01:44:33.121Z,155.29
2023-03-13T01:45:33.113Z,155.29
2023-03-13T01:46:33.207Z,155.29
2023-03-13T01:47:33.162Z,155.29
2023-03-13T01:48:33.131Z,155.29
2023-03-13T01:49:33.126Z,155.29
2023-03-13T01:50:33.114Z,155.29
2023-03-13T01:51:33.113Z,204.71
2023-03-13T01:52:33.124Z,194.82
2023-03-13T01:53:33.124Z,158.12
2023-03-13T01:54:33.133Z,158.12
2023-03-13T01:55:33.154Z,158.12
2023-03-13T01:56:33.130Z,158.12
2023-03-13T01:57:33.136Z,158.12
2023-03-13T01:58:33.132Z,158.12
2023-03-13T01:59:33.129Z,158.12
2023-03-13T02:00:33.143Z,158.12
2023-03-13T02:01:33.163Z,158.12
2023-03-13T02:02:33.178Z,158.12
2023-03-13T02:03:33.166Z,158.12
2023-03-13T02:04:33.141Z,158.12
2023-03-13T02:05:33.145Z,158.12
2023-03-13T02:06:33.141Z,158.12
2023-03-13T02:07:33.151Z,158.12
2023-03-13T02:08:33.157Z,158.12
2023-03-13T02:09:33.179Z,158.12
2023-03-13T02:10:33.157Z,158.12
2023-03-13T02:11:33.149Z,158.12
2023-03-13T02:12:33.147Z,158.12
2023-03-13T02:13:33.147Z,158.12
2023-03-13T02:14:33.148Z,158.12
2023-03-13T02:15:33.173Z,158.12
2023-03-13T02:16:33.173Z,158.12
2023-03-13T02:17:33.189Z,146.82
2023-03-13T02:18:33.158Z,129.88
2023-03-13T02:19:33.184Z,194.82
2023-03-13T02:20:33.163Z,162.35
2023-03-13T02:21:33.195Z,156.71
2023-03-13T02:22:33.159Z,134.12
2023-03-13T02:23:33.189Z,151.06
2023-03-13T02:24:33.182Z,149.65
2023-03-13T02:25:33.158Z,149.65
2023-03-13T02:26:33.185Z,165.18
2023-03-13T02:27:33.213Z,96
2023-03-13T02:28:33.164Z,206.12
2023-03-13T02:29:33.263Z,204.71
2023-03-13T02:30:33.193Z,184.94
2023-03-13T02:31:33.265Z,166.59
2023-03-13T02:32:33.252Z,170.82
2023-03-13T02:33:33.163Z,74.82
2023-03-13T02:34:33.165Z,48
2023-03-13T02:35:33.270Z,48
2023-03-13T02:36:33.186Z,114.35
2023-03-13T02:37:33.179Z,110.12
2023-03-13T02:38:33.192Z,141.18
2023-03-13T02:39:33.180Z,101.65
2023-03-13T02:40:33.181Z,107.29
2023-03-13T02:41:33.171Z,79.06
2023-03-13T02:42:33.191Z,79.06
2023-03-13T02:43:33.188Z,79.06
2023-03-13T02:44:33.191Z,79.06
2023-03-13T02:45:33.193Z,79.06
2023-03-13T02:46:33.260Z,79.06
2023-03-13T02:47:33.192Z,79.06
2023-03-13T02:48:33.219Z,79.06
2023-03-13T02:49:33.196Z,79.06
2023-03-13T02:50:33.194Z,79.06
2023-03-13T02:51:33.228Z,79.06
2023-03-13T02:52:33.198Z,79.06
2023-03-13T02:53:33.210Z,79.06
2023-03-13T02:54:33.228Z,79.06
2023-03-13T02:55:33.214Z,79.06
2023-03-13T02:56:33.204Z,79.06
2023-03-13T02:57:33.193Z,79.06
2023-03-13T02:58:33.664Z,79.06
2023-03-13T02:59:33.205Z,79.06
2023-03-13T03:00:33.246Z,79.06
2023-03-13T03:01:33.213Z,79.06
2023-03-13T03:02:33.251Z,79.06
2023-03-13T03:03:33.232Z,79.06
2023-03-13T03:04:33.206Z,79.06
2023-03-13T03:05:33.213Z,159.53
2023-03-13T03:06:33.199Z,149.65
2023-03-13T03:07:33.229Z,153.88
2023-03-13T03:08:33.219Z,163.76
2023-03-13T03:09:33.211Z,172.24
2023-03-13T03:10:33.208Z,182.12
2023-03-13T03:11:33.213Z,136.94
2023-03-13T03:12:33.220Z,111.53
2023-03-13T03:13:33.223Z,182.12
2023-03-13T03:14:33.224Z,125.65
2023-03-13T03:15:33.231Z,148.24
2023-03-13T03:16:33.292Z,101.65
2023-03-13T03:17:33.216Z,107.29
2023-03-13T03:18:34.642Z,122.82
2023-03-13T03:19:33.226Z,108.71
2023-03-13T03:20:33.220Z,158.12
2023-03-13T03:21:33.225Z,145.41
2023-03-13T03:22:33.226Z,120
2023-03-13T03:23:33.243Z,120
2023-03-13T03:24:33.232Z,120
2023-03-13T03:25:33.218Z,120
2023-03-13T03:26:33.220Z,120
2023-03-13T03:27:33.231Z,162.35
2023-03-13T03:28:33.220Z,155.29
2023-03-13T03:29:33.232Z,179.29
2023-03-13T03:30:33.230Z,138.35
2023-03-13T03:31:33.309Z,149.65
2023-03-13T03:32:33.294Z,172.24
2023-03-13T03:33:33.257Z,155.29
2023-03-13T03:34:33.235Z,179.29
2023-03-13T03:35:33.261Z,153.88
2023-03-13T03:36:33.246Z,145.41
2023-03-13T03:37:33.235Z,145.41
2023-03-13T03:38:33.238Z,145.41
2023-03-13T03:39:33.255Z,145.41
2023-03-13T03:40:33.233Z,145.41
2023-03-13T03:41:33.241Z,94.59
2023-03-13T03:42:33.233Z,118.59
2023-03-13T03:43:33.247Z,114.35
2023-03-13T03:44:33.239Z,83.29
2023-03-13T03:45:33.265Z,83.29
2023-03-13T03:46:33.245Z,83.29
2023-03-13T03:47:33.250Z,83.29
2023-03-13T03:48:33.253Z,83.29
2023-03-13T03:49:33.241Z,83.29
2023-03-13T03:50:33.243Z,120
2023-03-13T03:51:33.258Z,131.29
2023-03-13T03:52:33.241Z,148.24
2023-03-13T03:53:33.253Z,148.24
2023-03-13T03:54:33.266Z,108.71
2023-03-13T03:55:35.086Z,142.59
2023-03-13T03:56:33.242Z,142.59
2023-03-13T03:57:33.245Z,142.59
2023-03-13T03:58:33.247Z,142.59
2023-03-13T03:59:33.246Z,142.59
2023-03-13T04:00:33.243Z,142.59
2023-03-13T04:01:33.265Z,142.59
2023-03-13T04:02:33.312Z,142.59
2023-03-13T04:03:33.291Z,142.59
2023-03-13T04:04:33.250Z,142.59
2023-03-13T04:05:33.259Z,142.59
2023-03-13T04:06:33.259Z,142.59
2023-03-13T04:07:33.249Z,142.59
2023-03-13T04:08:33.262Z,142.59
2023-03-13T04:09:33.254Z,142.59
2023-03-13T04:10:33.262Z,142.59
2023-03-13T04:11:33.281Z,142.59
2023-03-13T04:12:33.261Z,142.59
2023-03-13T04:13:33.257Z,142.59
2023-03-13T04:14:33.260Z,142.59
2023-03-13T04:15:33.283Z,142.59
2023-03-13T04:16:33.400Z,142.59
2023-03-13T04:17:33.267Z,142.59
2023-03-13T04:18:33.274Z,142.59
2023-03-13T04:19:33.279Z,142.59
2023-03-13T04:20:33.265Z,142.59
2023-03-13T04:21:33.275Z,142.59
2023-03-13T04:22:33.275Z,142.59
2023-03-13T04:23:33.291Z,142.59
2023-03-13T04:24:33.267Z,142.59
2023-03-13T04:25:33.269Z,142.59
2023-03-13T04:26:33.267Z,142.59
2023-03-13T04:27:33.308Z,142.59
2023-03-13T04:28:33.271Z,142.59
2023-03-13T04:29:33.270Z,142.59
2023-03-13T04:30:33.277Z,142.59
2023-03-13T04:31:33.260Z,142.59
2023-03-13T04:32:33.341Z,142.59
2023-03-13T04:33:33.264Z,142.59
2023-03-13T04:34:33.289Z,142.59
2023-03-13T04:35:33.413Z,142.59
2023-03-13T04:36:33.280Z,142.59
2023-03-13T04:37:33.270Z,142.59
2023-03-13T04:38:33.273Z,142.59
2023-03-13T04:39:33.323Z,142.59
2023-03-13T04:40:33.266Z,142.59
2023-03-13T04:41:33.289Z,142.59
2023-03-13T04:42:33.277Z,142.59
2023-03-13T04:43:33.292Z,142.59
2023-03-13T04:44:33.275Z,142.59
2023-03-13T04:45:33.265Z,142.59
2023-03-13T04:46:33.352Z,142.59
2023-03-13T04:47:33.283Z,142.59
2023-03-13T04:48:33.286Z,142.59
2023-03-13T04:49:33.284Z,142.59
2023-03-13T04:50:33.277Z,142.59
2023-03-13T04:51:33.293Z,142.59
2023-03-13T04:52:33.296Z,142.59
2023-03-13T04:53:33.310Z,142.59
2023-03-13T04:54:33.299Z,142.59
2023-03-13T04:55:33.291Z,142.59
2023-03-13T04:56:43.052Z,142.59
2023-03-13T04:57:33.278Z,142.59
2023-03-13T04:58:33.302Z,142.59
2023-03-13T04:59:33.322Z,142.59
2023-03-13T05:00:33.302Z,142.59
2023-03-13T05:01:33.321Z,142.59
2023-03-13T05:02:33.289Z,142.59
2023-03-13T05:03:33.311Z,142.59
2023-03-13T05:04:33.367Z,142.59
2023-03-13T05:05:33.377Z,142.59
2023-03-13T05:06:33.309Z,142.59
2023-03-13T05:07:33.303Z,142.59
2023-03-13T05:08:33.304Z,142.59
2023-03-13T05:09:33.336Z,142.59
2023-03-13T05:10:33.323Z,142.59
2023-03-13T05:11:33.323Z,142.59
2023-03-13T05:12:33.313Z,142.59
2023-03-13T05:13:33.312Z,142.59
2023-03-13T05:14:33.324Z,142.59
2023-03-13T05:15:33.406Z,142.59
2023-03-13T05:16:33.336Z,142.59
2023-03-13T05:17:33.334Z,142.59
2023-03-13T05:18:33.319Z,142.59
2023-03-13T05:19:33.328Z,142.59
2023-03-13T05:20:33.322Z,142.59
2023-03-13T05:21:33.320Z,142.59
2023-03-13T05:22:33.320Z,142.59
2023-03-13T05:23:33.317Z,142.59
2023-03-13T05:24:33.338Z,142.59
2023-03-13T05:25:33.348Z,142.59
2023-03-13T05:26:33.320Z,142.59
2023-03-13T05:27:33.336Z,142.59
2023-03-13T05:28:33.332Z,142.59
2023-03-13T05:29:33.335Z,142.59
2023-03-13T05:30:33.341Z,142.59
2023-03-13T05:31:33.426Z,142.59
2023-03-13T05:32:33.388Z,142.59
2023-03-13T05:33:33.336Z,142.59
2023-03-13T05:34:33.337Z,142.59
2023-03-13T05:35:33.369Z,142.59
2023-03-13T05:36:33.343Z,142.59
2023-03-13T05:37:33.349Z,142.59
2023-03-13T05:38:33.344Z,142.59
2023-03-13T05:39:33.337Z,142.59
2023-03-13T05:40:33.345Z,142.59
2023-03-13T05:41:33.362Z,142.59
2023-03-13T05:42:33.341Z,142.59
2023-03-13T05:43:33.345Z,142.59
2023-03-13T05:44:33.357Z,142.59
2023-03-13T05:45:33.344Z,142.59
2023-03-13T05:46:33.436Z,142.59
2023-03-13T05:47:33.401Z,142.59
2023-03-13T05:48:33.365Z,142.59
2023-03-13T05:49:33.355Z,142.59
2023-03-13T05:50:33.374Z,142.59
2023-03-13T05:51:33.354Z,142.59
2023-03-13T05:52:33.369Z,142.59
2023-03-13T05:53:33.373Z,142.59
2023-03-13T05:54:33.367Z,142.59
2023-03-13T05:55:33.360Z,142.59
2023-03-13T05:56:33.370Z,142.59
2023-03-13T05:57:33.380Z,142.59
2023-03-13T05:58:33.358Z,142.59
2023-03-13T05:59:33.376Z,142.59
2023-03-13T06:00:33.383Z,142.59
2023-03-13T06:01:33.412Z,142.59
2023-03-13T06:02:33.398Z,142.59
2023-03-13T06:03:33.521Z,142.59
2023-03-13T06:04:33.527Z,142.59
2023-03-13T06:05:33.390Z,142.59
2023-03-13T06:06:33.378Z,142.59
2023-03-13T06:07:33.376Z,142.59
2023-03-13T06:08:33.395Z,142.59
2023-03-13T06:09:33.389Z,142.59
2023-03-13T06:10:33.380Z,142.59
2023-03-13T06:11:33.396Z,142.59
2023-03-13T06:12:33.395Z,142.59
2023-03-13T06:13:33.385Z,142.59
2023-03-13T06:14:33.391Z,142.59
2023-03-13T06:15:33.392Z,142.59
2023-03-13T06:16:33.440Z,142.59
2023-03-13T06:17:33.404Z,156.71
2023-03-13T06:18:33.389Z,128.47
2023-03-13T06:19:33.416Z,121.41
2023-03-13T06:20:33.391Z,134.12
2023-03-13T06:21:33.385Z,107.29
2023-03-13T06:22:33.396Z,156.71
2023-03-13T06:23:33.389Z,156.71
2023-03-13T06:24:33.420Z,156.71
2023-03-13T06:25:33.406Z,156.71
2023-03-13T06:26:33.400Z,156.71
2023-03-13T06:27:33.415Z,156.71
2023-03-13T06:28:33.394Z,156.71
2023-03-13T06:29:33.402Z,156.71
2023-03-13T06:30:33.412Z,156.71
2023-03-13T06:31:33.488Z,156.71
2023-03-13T06:32:33.525Z,156.71
2023-03-13T06:33:33.397Z,156.71
2023-03-13T06:34:33.409Z,156.71
2023-03-13T06:35:37.124Z,156.71
2023-03-13T06:36:33.566Z,156.71
2023-03-13T06:37:33.405Z,156.71
2023-03-13T06:38:33.407Z,156.71
2023-03-13T06:39:33.406Z,156.71
2023-03-13T06:40:33.417Z,156.71
2023-03-13T06:41:33.476Z,156.71
2023-03-13T06:42:33.414Z,156.71
2023-03-13T06:43:33.435Z,156.71
2023-03-13T06:44:33.436Z,156.71
2023-03-13T06:45:33.442Z,156.71
2023-03-13T06:46:33.614Z,156.71
2023-03-13T06:47:33.429Z,156.71
2023-03-13T06:48:33.431Z,156.71
2023-03-13T06:49:33.433Z,156.71
2023-03-13T06:50:33.444Z,156.71
2023-03-13T06:51:33.588Z,156.71
2023-03-13T06:52:42.975Z,156.71
2023-03-13T06:53:33.434Z,156.71
2023-03-13T06:54:33.430Z,156.71
2023-03-13T06:55:33.433Z,156.71
2023-03-13T06:56:33.444Z,156.71
2023-03-13T06:57:33.440Z,176.47
2023-03-13T06:58:33.431Z,184.94
2023-03-13T06:59:33.442Z,187.76
2023-03-13T07:00:33.450Z,156.71
2023-03-13T07:01:33.475Z,148.24
2023-03-13T07:02:33.441Z,145.41
2023-03-13T07:03:33.488Z,162.35
2023-03-13T07:04:33.449Z,159.53
2023-03-13T07:05:33.459Z,165.18
2023-03-13T07:06:33.513Z,165.18
2023-03-13T07:07:33.528Z,165.18
2023-03-13T07:08:33.473Z,165.18
2023-03-13T07:09:33.470Z,149.65
2023-03-13T07:10:33.470Z,127.06
2023-03-13T07:11:33.462Z,118.59
2023-03-13T07:12:33.483Z,121.41
2023-03-13T07:13:33.473Z,121.41
2023-03-13T07:14:33.473Z,121.41
2023-03-13T07:15:33.489Z,121.41
2023-03-13T07:16:33.557Z,121.41
2023-03-13T07:17:33.546Z,121.41
2023-03-13T07:18:33.487Z,121.41
2023-03-13T07:19:33.477Z,121.41
2023-03-13T07:20:33.547Z,121.41
2023-03-13T07:21:33.497Z,121.41
2023-03-13T07:22:33.477Z,121.41
2023-03-13T07:23:33.527Z,121.41
2023-03-13T07:24:33.550Z,121.41
2023-03-13T07:25:33.496Z,121.41
2023-03-13T07:26:33.517Z,121.41
2023-03-13T07:27:33.501Z,121.41
2023-03-13T07:28:35.057Z,121.41
2023-03-13T07:29:33.486Z,187.76
2023-03-13T07:30:33.488Z,170.82
2023-03-13T07:31:33.578Z,162.35
2023-03-13T07:32:33.481Z,146.82
2023-03-13T07:33:33.509Z,146.82
2023-03-13T07:34:33.520Z,148.24
2023-03-13T07:35:33.504Z,165.18
2023-03-13T07:36:33.537Z,183.53
2023-03-13T07:37:33.512Z,163.76
2023-03-13T07:38:33.502Z,173.65
2023-03-13T07:39:33.535Z,175.06
2023-03-13T07:40:33.518Z,148.24
2023-03-13T07:41:33.498Z,168
2023-03-13T07:42:33.499Z,180.71
2023-03-13T07:43:33.501Z,208.94
2023-03-13T07:44:33.497Z,179.29
2023-03-13T07:45:33.539Z,136.94
2023-03-13T07:46:33.508Z,163.76
2023-03-13T07:47:33.506Z,138.35
2023-03-13T07:48:33.519Z,162.35
2023-03-13T07:49:33.505Z,166.59
2023-03-13T07:50:33.591Z,166.59
2023-03-13T07:51:43.223Z,166.59
2023-03-13T07:52:33.524Z,166.59
2023-03-13T07:53:33.565Z,166.59
2023-03-13T07:54:33.555Z,166.59
2023-03-13T07:55:33.540Z,166.59
2023-03-13T07:56:33.518Z,166.59
2023-03-13T07:57:33.502Z,166.59
2023-03-13T07:58:33.527Z,166.59
2023-03-13T07:59:33.563Z,166.59
2023-03-13T08:00:33.507Z,166.59
2023-03-13T08:01:33.527Z,166.59
2023-03-13T08:02:33.602Z,166.59
2023-03-13T08:03:33.559Z,166.59
2023-03-13T08:04:33.524Z,166.59
2023-03-13T08:05:33.542Z,166.59
2023-03-13T08:06:34.318Z,166.59
2023-03-13T08:07:33.524Z,166.59
2023-03-13T08:08:33.537Z,166.59
2023-03-13T08:09:33.512Z,166.59
2023-03-13T08:10:33.531Z,166.59
2023-03-13T08:11:33.567Z,166.59
2023-03-13T08:12:33.522Z,166.59
2023-03-13T08:13:33.513Z,166.59
2023-03-13T08:14:33.527Z,158.12
2023-03-13T08:15:33.554Z,169.41
2023-03-13T08:16:33.589Z,169.41
2023-03-13T08:17:33.512Z,216
2023-03-13T08:18:33.568Z,216
2023-03-13T08:19:33.519Z,173.65
2023-03-13T08:20:33.530Z,142.59
2023-03-13T08:21:33.520Z,138.35
2023-03-13T08:22:33.523Z,138.35
2023-03-13T08:23:33.526Z,138.35
2023-03-13T08:24:33.526Z,138.35
2023-03-13T08:25:33.518Z,138.35
2023-03-13T08:26:33.538Z,138.35
2023-03-13T08:27:33.551Z,138.35
2023-03-13T08:28:33.539Z,111.53
2023-03-13T08:29:33.545Z,111.53
2023-03-13T08:30:33.580Z,111.53
2023-03-13T08:31:33.536Z,111.53
2023-03-13T08:32:33.577Z,111.53
2023-03-13T08:33:33.532Z,207.53
2023-03-13T08:34:33.524Z,203.29
2023-03-13T08:35:33.671Z,148.24
2023-03-13T08:36:33.550Z,148.24
2023-03-13T08:37:33.528Z,148.24
2023-03-13T08:38:33.554Z,148.24
2023-03-13T08:39:33.538Z,148.24
2023-03-13T08:40:33.537Z,148.24
2023-03-13T08:41:33.544Z,132.71
2023-03-13T08:42:33.548Z,132.71
2023-03-13T08:43:33.581Z,132.71
2023-03-13T08:44:33.546Z,151.06
2023-03-13T08:45:33.532Z,120
2023-03-13T08:46:33.577Z,155.29
2023-03-13T08:47:33.541Z,155.29
2023-03-13T08:48:33.550Z,207.53
2023-03-13T08:49:33.549Z,186.35
2023-03-13T08:50:33.538Z,175.06
2023-03-13T08:51:33.547Z,186.35
2023-03-13T08:52:33.558Z,210.35
2023-03-13T08:53:33.560Z,176.47
2023-03-13T08:54:33.561Z,186.35
2023-03-13T08:55:33.550Z,203.29
2023-03-13T08:56:33.578Z,203.29
2023-03-13T08:57:33.555Z,203.29
2023-03-13T08:58:33.565Z,203.29
2023-03-13T08:59:33.588Z,213.18
2023-03-13T09:00:33.563Z,163.76
2023-03-13T09:01:33.557Z,173.65
2023-03-13T09:02:33.563Z,165.18
2023-03-13T09:03:33.627Z,165.18
2023-03-13T09:04:33.568Z,165.18
2023-03-13T09:05:38.596Z,160.94
2023-03-13T09:06:33.565Z,180.71
2023-03-13T09:07:33.562Z,168
2023-03-13T09:08:33.582Z,125.65
2023-03-13T09:09:33.577Z,134.12
2023-03-13T09:10:33.562Z,114.35
2023-03-13T09:11:33.582Z,103.06
2023-03-13T09:12:33.569Z,103.06
2023-03-13T09:13:33.558Z,103.06
2023-03-13T09:14:35.784Z,103.06
2023-03-13T09:15:33.594Z,91.76
2023-03-13T09:16:33.576Z,136.94
2023-03-13T09:17:33.559Z,136.94
2023-03-13T09:18:33.635Z,136.94
2023-03-13T09:19:33.556Z,136.94
2023-03-13T09:20:33.559Z,136.94
2023-03-13T09:21:33.577Z,136.94
2023-03-13T09:22:33.572Z,136.94
2023-03-13T09:23:33.581Z,136.94
2023-03-13T09:24:33.562Z,136.94
2023-03-13T09:25:33.560Z,136.94
2023-03-13T09:26:33.579Z,136.94
2023-03-13T09:27:33.578Z,136.94
2023-03-13T09:28:33.566Z,136.94
2023-03-13T09:29:33.590Z,136.94
2023-03-13T09:30:33.563Z,136.94
2023-03-13T09:31:33.701Z,136.94
2023-03-13T09:32:33.653Z,136.94
2023-03-13T09:33:33.573Z,136.94
2023-03-13T09:34:33.566Z,280.94
2023-03-13T09:35:33.573Z,256.94
2023-03-13T09:36:33.575Z,245.65
2023-03-13T09:37:33.588Z,248.47
2023-03-13T09:38:33.582Z,238.59
2023-03-13T09:39:33.576Z,204.71
2023-03-13T09:40:33.575Z,211.76
2023-03-13T09:41:33.569Z,224.47
2023-03-13T09:42:33.583Z,242.82
2023-03-13T09:43:33.572Z,232.94
2023-03-13T09:44:33.568Z,231.53
2023-03-13T09:45:33.570Z,228.71
2023-03-13T09:46:33.610Z,228.71
2023-03-13T09:47:33.592Z,207.53
2023-03-13T09:48:33.585Z,231.53
2023-03-13T09:49:33.578Z,264
2023-03-13T09:50:33.580Z,220.24
2023-03-13T09:51:33.577Z,247.06
2023-03-13T09:52:33.583Z,321.88
2023-03-13T09:53:33.574Z,182.12
2023-03-13T09:54:33.595Z,192
2023-03-13T09:55:33.576Z,144
2023-03-13T09:56:33.577Z,184.94
2023-03-13T09:57:33.623Z,196.24
2023-03-13T09:58:33.586Z,187.76
2023-03-13T09:59:33.595Z,187.76
2023-03-13T10:00:33.574Z,187.76
2023-03-13T10:01:33.594Z,187.76
2023-03-13T10:02:33.578Z,187.76
2023-03-13T10:03:33.610Z,159.53
2023-03-13T10:04:33.647Z,173.65
2023-03-13T10:05:33.607Z,172.24
2023-03-13T10:06:33.597Z,170.82
2023-03-13T10:07:33.586Z,166.59
2023-03-13T10:08:33.588Z,173.65
2023-03-13T10:09:33.599Z,210.35
2023-03-13T10:10:33.631Z,213.18
2023-03-13T10:11:33.593Z,194.82
2023-03-13T10:12:33.587Z,217.41
2023-03-13T10:13:33.599Z,176.47
2023-03-13T10:14:33.593Z,221.65
2023-03-13T10:15:33.587Z,193.41
2023-03-13T10:16:33.684Z,190.59
2023-03-13T10:17:33.620Z,190.59
2023-03-13T10:18:33.631Z,190.59
2023-03-13T10:19:33.645Z,141.18
2023-03-13T10:20:33.584Z,146.82
2023-03-13T10:21:33.600Z,129.88
2023-03-13T10:22:33.608Z,210.35
2023-03-13T10:23:33.616Z,247.06
2023-03-13T10:24:33.605Z,134.12
2023-03-13T10:25:33.597Z,187.76
2023-03-13T10:26:33.604Z,184.94
2023-03-13T10:27:33.600Z,184.94
2023-03-13T10:28:33.605Z,184.94
2023-03-13T10:29:33.597Z,184.94
2023-03-13T10:30:33.604Z,184.94
2023-03-13T10:31:33.658Z,193.41
2023-03-13T10:32:33.665Z,184.94
2023-03-13T10:33:33.599Z,148.24
2023-03-13T10:34:33.611Z,110.12
2023-03-13T10:35:33.745Z,110.12
2023-03-13T10:36:33.600Z,110.12
2023-03-13T10:37:33.614Z,168
2023-03-13T10:38:33.603Z,172.24
2023-03-13T10:39:33.613Z,160.94
2023-03-13T10:40:33.613Z,152.47
2023-03-13T10:41:33.598Z,165.18
2023-03-13T10:42:33.601Z,162.35
2023-03-13T10:43:33.608Z,128.47
2023-03-13T10:44:33.655Z,190.59
2023-03-13T10:45:33.603Z,235.76
2023-03-13T10:46:33.619Z,261.18
2023-03-13T10:47:33.613Z,238.59
2023-03-13T10:48:33.603Z,268.24
2023-03-13T10:49:33.623Z,252.71
2023-03-13T10:50:33.607Z,214.59
2023-03-13T10:51:33.645Z,286.59
2023-03-13T10:52:33.617Z,285.18
2023-03-13T10:53:33.619Z,302.12
2023-03-13T10:54:33.603Z,290.82
2023-03-13T10:55:33.606Z,290.82
2023-03-13T10:56:33.612Z,290.82
2023-03-13T10:57:33.613Z,290.82
2023-03-13T10:58:33.618Z,290.82
2023-03-13T10:59:33.618Z,304.94
2023-03-13T11:00:33.613Z,304.94
2023-03-13T11:01:33.614Z,304.94
2023-03-13T11:02:33.706Z,304.94
2023-03-13T11:03:33.857Z,304.94
2023-03-13T11:04:33.657Z,293.65
2023-03-13T11:05:33.609Z,304.94
2023-03-13T11:06:33.623Z,265.41
2023-03-13T11:07:33.637Z,265.41
2023-03-13T11:08:33.691Z,265.41
2023-03-13T11:09:33.604Z,265.41
2023-03-13T11:10:33.613Z,265.41
2023-03-13T11:11:33.617Z,265.41
2023-03-13T11:12:33.651Z,265.41
2023-03-13T11:13:37.189Z,265.41
2023-03-13T11:14:33.628Z,265.41
2023-03-13T11:15:33.601Z,265.41
2023-03-13T11:16:33.723Z,265.41
2023-03-13T11:17:33.607Z,265.41
2023-03-13T11:18:33.625Z,265.41
2023-03-13T11:19:33.642Z,177.88
2023-03-13T11:20:33.605Z,176.47
2023-03-13T11:21:33.641Z,168
2023-03-13T11:22:33.622Z,145.41
2023-03-13T11:23:33.652Z,134.12
2023-03-13T11:24:33.648Z,165.18
2023-03-13T11:25:33.619Z,139.76
2023-03-13T11:26:33.641Z,184.94
2023-03-13T11:27:33.687Z,125.65
2023-03-13T11:28:33.635Z,168
2023-03-13T11:29:33.715Z,148.24
2023-03-13T11:30:33.620Z,103.06
2023-03-13T11:31:33.684Z,145.41
2023-03-13T11:32:33.691Z,125.65
2023-03-13T11:33:33.640Z,131.29
2023-03-13T11:34:33.634Z,169.41
2023-03-13T11:35:33.668Z,162.35
2023-03-13T11:36:33.650Z,169.41
2023-03-13T11:37:33.647Z,169.41
2023-03-13T11:38:33.637Z,201.88
2023-03-13T11:39:33.675Z,193.41
2023-03-13T11:40:33.630Z,177.88
2023-03-13T11:41:33.686Z,177.88
2023-03-13T11:42:33.629Z,135.53
2023-03-13T11:43:33.628Z,166.59
2023-03-13T11:44:33.658Z,207.53
2023-03-13T11:45:33.696Z,235.76
2023-03-13T11:46:33.785Z,179.29
2023-03-13T11:47:33.645Z,266.82
2023-03-13T11:48:33.631Z,207.53
2023-03-13T11:49:33.626Z,273.88
2023-03-13T11:50:33.641Z,271.06
2023-03-13T11:51:33.717Z,238.59
2023-03-13T11:52:33.643Z,200.47
2023-03-13T11:53:33.638Z,211.76
2023-03-13T11:54:33.661Z,240
2023-03-13T11:55:33.665Z,240
2023-03-13T11:56:33.636Z,240
2023-03-13T11:57:33.641Z,240
2023-03-13T11:58:33.636Z,240
2023-03-13T11:59:33.626Z,240
2023-03-13T12:00:33.642Z,230.12
2023-03-13T12:01:33.647Z,227.29
2023-03-13T12:02:33.833Z,256.94
2023-03-13T12:03:33.666Z,338.82
2023-03-13T12:04:33.665Z,293.65
2023-03-13T12:05:33.710Z,280.94
2023-03-13T12:06:33.674Z,269.65
2023-03-13T12:07:33.638Z,269.65
2023-03-13T12:08:33.639Z,269.65
2023-03-13T12:09:33.651Z,228.71
2023-03-13T12:10:33.643Z,228.71
2023-03-13T12:11:33.666Z,228.71
2023-03-13T12:12:33.649Z,228.71
2023-03-13T12:13:33.660Z,228.71
2023-03-13T12:14:33.649Z,228.71
2023-03-13T12:15:33.678Z,193.41
2023-03-13T12:16:33.760Z,206.12
2023-03-13T12:17:33.715Z,168
2023-03-13T12:18:33.662Z,168
2023-03-13T12:19:33.667Z,159.53
2023-03-13T12:20:33.669Z,149.65
2023-03-13T12:21:33.690Z,149.65
2023-03-13T12:22:33.647Z,149.65
2023-03-13T12:23:33.671Z,149.65
2023-03-13T12:24:33.646Z,149.65
2023-03-13T12:25:33.840Z,149.65
2023-03-13T12:26:33.635Z,149.65
2023-03-13T12:27:33.701Z,149.65
2023-03-13T12:28:33.764Z,149.65
2023-03-13T12:29:33.645Z,149.65
2023-03-13T12:30:33.722Z,149.65
2023-03-13T12:31:33.648Z,149.65
2023-03-13T12:32:33.748Z,149.65
2023-03-13T12:33:33.674Z,207.53
2023-03-13T12:34:33.671Z,296.47